createdAt,value
2023-04-10T00:01:35.694Z,24.17
2023-04-10T00:03:09.083Z,22.53
2023-04-10T00:04:41.766Z,23.30
2023-04-10T00:06:14.891Z,22.70
2023-04-10T00:07:47.953Z,21.77
2023-04-10T00:09:21.107Z,22.30
2023-04-10T00:10:54.481Z,23.30
2023-04-10T00:12:27.639Z,22.30
2023-04-10T00:14:00.901Z,23.57
2023-04-10T00:15:33.938Z,20.00
2023-04-10T00:17:08.612Z,19.03
2023-04-10T00:18:41.664Z,19.40
2023-04-10T00:20:14.835Z,19.20
2023-04-10T00:21:48.095Z,19.53
2023-04-10T00:23:20.266Z,21.23
2023-04-10T00:24:53.328Z,22.00
2023-04-10T00:26:26.810Z,22.23
2023-04-10T00:27:59.912Z,20.93
2023-04-10T00:29:33.019Z,21.57
2023-04-10T00:31:06.699Z,21.73
2023-04-10T00:32:40.545Z,20.60
2023-04-10T00:34:14.089Z,20.77
2023-04-10T00:35:47.200Z,20.53
2023-04-10T00:37:20.619Z,20.17
2023-04-10T00:38:53.750Z,19.97
2023-04-10T00:40:27.292Z,18.73
2023-04-10T00:42:01.497Z,19.33
2023-04-10T00:43:34.629Z,19.70
2023-04-10T00:45:08.744Z,20.53
2023-04-10T00:46:42.374Z,20.60
2023-04-10T00:48:17.797Z,21.33
2023-04-10T00:49:50.344Z,22.13
2023-04-10T00:51:23.858Z,21.97
2023-04-10T00:52:58.077Z,22.03
2023-04-10T00:54:33.101Z,22.53
2023-04-10T00:56:08.337Z,22.07
2023-04-10T00:57:45.245Z,22.77
2023-04-10T00:59:18.342Z,21.70
2023-04-10T01:00:52.474Z,21.60
2023-04-10T01:02:24.685Z,20.90
2023-04-10T01:03:59.778Z,22.07
2023-04-10T01:05:39.439Z,22.03
2023-04-10T01:07:22.904Z,23.70
2023-04-10T01:09:02.537Z,23.63
2023-04-10T01:10:41.807Z,23.17
2023-04-10T01:12:31.395Z,21.97
2023-04-10T01:14:16.871Z,22.37
2023-04-10T01:15:58.200Z,21.67
2023-04-10T01:17:36.565Z,21.67
2023-04-10T01:19:23.911Z,21.73
2023-04-10T01:20:58.703Z,22.93
2023-04-10T01:22:39.456Z,23.57
2023-04-10T01:24:38.723Z,23.93
2023-04-10T01:26:12.764Z,24.43
2023-04-10T01:28:08.093Z,25.27
2023-04-10T01:29:47.662Z,24.47
2023-04-10T01:31:27.393Z,25.30
2023-04-10T01:33:02.561Z,25.43
2023-04-10T01:34:43.022Z,25.00
2023-04-10T01:36:21.754Z,24.77
2023-04-10T01:37:56.100Z,23.37
2023-04-10T01:39:31.402Z,23.67
2023-04-10T01:41:08.638Z,24.60
2023-04-10T01:42:45.764Z,25.20
2023-04-10T01:44:20.746Z,27.23
2023-04-10T01:45:57.410Z,26.70
2023-04-10T01:47:30.193Z,27.30
2023-04-10T01:49:04.271Z,28.47
2023-04-10T01:50:36.951Z,27.73
2023-04-10T01:52:10.693Z,26.63
2023-04-10T01:53:45.711Z,26.83
2023-04-10T01:55:19.328Z,24.67
2023-04-10T01:56:58.809Z,24.20
2023-04-10T01:58:31.911Z,24.83
2023-04-10T02:00:06.285Z,25.17
2023-04-10T02:01:49.328Z,24.80
2023-04-10T02:03:23.449Z,25.03
2023-04-10T02:04:56.884Z,26.03
2023-04-10T02:06:38.824Z,24.90
2023-04-10T02:08:16.519Z,24.87
2023-04-10T02:10:03.523Z,23.83
2023-04-10T02:11:45.608Z,26.97
2023-04-10T02:13:21.999Z,23.93
2023-04-10T02:14:58.902Z,22.97
2023-04-10T02:16:33.641Z,24.20
2023-04-10T02:18:08.370Z,23.77
2023-04-10T02:19:42.285Z,24.73
2023-04-10T02:21:15.561Z,25.47
2023-04-10T02:22:49.177Z,25.83
2023-04-10T02:24:22.359Z,23.53
2023-04-10T02:25:56.986Z,26.13
2023-04-10T02:27:31.431Z,25.20
2023-04-10T02:29:05.263Z,25.50
2023-04-10T02:30:39.257Z,24.73
2023-04-10T02:32:12.370Z,24.47
2023-04-10T02:33:45.937Z,26.27
2023-04-10T02:35:19.126Z,25.50
2023-04-10T02:36:52.211Z,25.07
2023-04-10T02:38:26.380Z,25.70
2023-04-10T02:39:59.167Z,24.83
2023-04-10T02:41:33.263Z,25.27
2023-04-10T02:43:09.671Z,25.10
2023-04-10T02:44:42.810Z,24.87
2023-04-10T02:46:15.975Z,24.97
2023-04-10T02:47:48.087Z,26.13
2023-04-10T02:49:22.792Z,24.23
2023-04-10T02:50:58.482Z,26.57
2023-04-10T02:52:32.551Z,25.97
2023-04-10T02:54:05.944Z,23.60
2023-04-10T02:55:38.979Z,23.53
2023-04-10T02:57:12.131Z,23.30
2023-04-10T02:58:47.670Z,23.13
2023-04-10T03:00:21.530Z,23.20
2023-04-10T03:02:14.983Z,22.47
2023-04-10T03:03:48.359Z,22.40
2023-04-10T03:05:31.383Z,23.83
2023-04-10T03:07:04.523Z,23.33
2023-04-10T03:08:37.891Z,22.43
2023-04-10T03:10:11.953Z,22.43
2023-04-10T03:11:45.311Z,21.20
2023-04-10T03:13:18.748Z,21.70
2023-04-10T03:14:50.906Z,22.33
2023-04-10T03:16:24.060Z,22.83
2023-04-10T03:17:57.280Z,21.73
2023-04-10T03:19:30.470Z,21.77
2023-04-10T03:21:04.287Z,22.90
2023-04-10T03:22:37.361Z,21.93
2023-04-10T03:24:10.625Z,21.60
2023-04-10T03:25:43.890Z,23.00
2023-04-10T03:27:18.274Z,22.87
2023-04-10T03:28:50.353Z,23.93
2023-04-10T03:30:23.416Z,22.83
2023-04-10T03:31:57.474Z,22.43
2023-04-10T03:33:30.773Z,22.20
2023-04-10T03:35:06.861Z,22.27
2023-04-10T03:36:41.310Z,20.83
2023-04-10T03:38:14.437Z,22.07
2023-04-10T03:39:47.496Z,21.73
2023-04-10T03:41:22.599Z,21.30
2023-04-10T03:42:57.331Z,21.97
2023-04-10T03:44:31.283Z,21.27
2023-04-10T03:46:03.391Z,21.97
2023-04-10T03:47:36.605Z,21.40
2023-04-10T03:49:12.426Z,21.60
2023-04-10T03:50:46.407Z,22.27
2023-04-10T03:52:20.940Z,22.20
2023-04-10T03:53:54.315Z,21.37
2023-04-10T03:55:26.502Z,22.07
2023-04-10T03:57:01.488Z,21.53
2023-04-10T03:58:34.762Z,21.87
2023-04-10T04:00:09.096Z,20.73
2023-04-10T04:01:54.029Z,21.20
2023-04-10T04:03:27.582Z,20.73
2023-04-10T04:05:11.475Z,21.57
2023-04-10T04:07:11.177Z,22.10
2023-04-10T04:09:17.920Z,21.13
2023-04-10T04:11:03.310Z,20.60
2023-04-10T04:13:02.326Z,20.97
2023-04-10T04:14:46.080Z,19.40
2023-04-10T04:16:37.771Z,19.83
2023-04-10T04:18:29.021Z,20.17
2023-04-10T04:20:22.428Z,21.00
2023-04-10T04:22:14.282Z,19.23
2023-04-10T04:24:06.444Z,21.97
2023-04-10T04:25:59.404Z,20.87
2023-04-10T04:27:41.699Z,20.23
2023-04-10T04:29:33.307Z,21.87
2023-04-10T04:31:21.273Z,21.53
2023-04-10T04:33:09.520Z,21.20
2023-04-10T04:34:57.154Z,20.77
2023-04-10T04:36:48.921Z,20.43
2023-04-10T04:38:42.648Z,20.43
2023-04-10T04:40:36.254Z,20.87
2023-04-10T04:42:31.015Z,20.80
2023-04-10T04:44:24.330Z,20.83
2023-04-10T04:46:13.959Z,20.47
2023-04-10T04:48:16.659Z,20.50
2023-04-10T04:50:00.473Z,22.37
2023-04-10T04:51:52.144Z,22.13
2023-04-10T04:53:44.123Z,23.00
2023-04-10T04:55:35.716Z,22.80
2023-04-10T04:57:16.394Z,22.40
2023-04-10T04:59:02.309Z,21.50
2023-04-10T05:01:00.896Z,21.10
2023-04-10T05:02:57.488Z,19.63
2023-04-10T05:04:36.620Z,21.07
2023-04-10T05:06:19.057Z,18.90
2023-04-10T05:08:07.158Z,19.73
2023-04-10T05:09:52.766Z,18.90
2023-04-10T05:12:01.454Z,18.57
2023-04-10T05:13:51.954Z,17.80
2023-04-10T05:15:52.706Z,17.33
2023-04-10T05:17:25.869Z,17.07
2023-04-10T05:19:22.546Z,17.17
2023-04-10T05:21:21.592Z,16.20
2023-04-10T05:23:21.099Z,17.17
2023-04-10T05:25:23.358Z,15.60
2023-04-10T05:27:19.424Z,15.53
2023-04-10T05:29:30.439Z,15.60
2023-04-10T05:31:25.640Z,14.77
2023-04-10T05:33:17.205Z,16.10
2023-04-10T05:35:10.834Z,15.23
2023-04-10T05:36:53.170Z,14.37
2023-04-10T05:38:45.625Z,14.23
2023-04-10T05:40:41.535Z,14.90
2023-04-10T05:42:28.135Z,14.37
2023-04-10T05:44:18.706Z,14.47
2023-04-10T05:46:03.686Z,14.33
2023-04-10T05:47:58.169Z,15.00
2023-04-10T05:49:41.842Z,15.13
2023-04-10T05:51:53.574Z,15.40
2023-04-10T05:53:38.830Z,15.07
2023-04-10T05:55:24.092Z,15.07
2023-04-10T05:57:26.963Z,14.20
2023-04-10T05:59:20.001Z,13.97
2023-04-10T06:01:11.381Z,14.20
2023-04-10T06:02:53.969Z,13.80
2023-04-10T06:04:32.793Z,13.90
2023-04-10T06:06:08.835Z,13.63
2023-04-10T06:07:41.930Z,12.97
2023-04-10T06:09:15.002Z,13.23
2023-04-10T06:10:48.329Z,13.03
2023-04-10T06:12:21.963Z,13.50
2023-04-10T06:13:55.273Z,13.97
2023-04-10T06:15:34.920Z,13.83
2023-04-10T06:17:08.236Z,13.53
2023-04-10T06:18:42.395Z,13.57
2023-04-10T06:20:17.809Z,13.20
2023-04-10T06:21:53.160Z,13.47
2023-04-10T06:23:27.828Z,13.80
2023-04-10T06:25:00.917Z,14.17
2023-04-10T06:26:34.040Z,13.57
2023-04-10T06:28:09.739Z,13.87
2023-04-10T06:29:42.831Z,13.43
2023-04-10T06:31:16.049Z,13.43
2023-04-10T06:32:50.015Z,13.87
2023-04-10T06:34:23.355Z,13.13
2023-04-10T06:36:05.454Z,14.13
2023-04-10T06:37:43.753Z,13.83
2023-04-10T06:39:17.421Z,14.03
2023-04-10T06:40:50.724Z,13.97
2023-04-10T06:42:22.945Z,14.33
2023-04-10T06:44:06.863Z,14.00
2023-04-10T06:45:40.042Z,14.50
2023-04-10T06:47:13.442Z,14.10
2023-04-10T06:48:46.777Z,13.97
2023-04-10T06:50:20.075Z,13.77
2023-04-10T06:51:54.837Z,14.97
2023-04-10T06:53:28.393Z,14.33
2023-04-10T06:55:01.473Z,13.97
2023-04-10T06:56:34.534Z,14.33
2023-04-10T06:58:07.800Z,14.53
2023-04-10T06:59:41.028Z,14.50
2023-04-10T07:01:14.228Z,14.03
2023-04-10T07:02:47.518Z,14.10
2023-04-10T07:04:20.575Z,13.83
2023-04-10T07:05:53.844Z,14.33
2023-04-10T07:07:29.253Z,14.57
2023-04-10T07:09:02.360Z,14.03
2023-04-10T07:10:35.996Z,13.77
2023-04-10T07:12:09.321Z,14.47
2023-04-10T07:13:42.469Z,14.77
2023-04-10T07:15:16.108Z,14.83
2023-04-10T07:16:49.768Z,15.10
2023-04-10T07:18:23.124Z,14.93
2023-04-10T07:19:56.229Z,14.37
2023-04-10T07:21:29.301Z,14.77
2023-04-10T07:23:03.992Z,14.20
2023-04-10T07:24:37.405Z,14.47
2023-04-10T07:26:10.458Z,14.67
2023-04-10T07:27:43.538Z,14.83
2023-04-10T07:29:16.845Z,15.27
2023-04-10T07:30:49.948Z,16.57
2023-04-10T07:32:23.231Z,16.20
2023-04-10T07:33:56.422Z,16.20
2023-04-10T07:35:29.475Z,15.00
2023-04-10T07:37:02.592Z,16.47
2023-04-10T07:38:37.728Z,16.97
2023-04-10T07:40:12.040Z,16.80
2023-04-10T07:41:45.348Z,17.03
2023-04-10T07:43:18.403Z,17.50
2023-04-10T07:44:51.544Z,16.40
2023-04-10T07:46:24.747Z,16.37
2023-04-10T07:47:59.403Z,17.27
2023-04-10T07:49:32.578Z,17.23
2023-04-10T07:51:09.164Z,17.27
2023-04-10T07:52:42.359Z,17.63
2023-04-10T07:54:16.822Z,18.87
2023-04-10T07:55:51.321Z,18.10
2023-04-10T07:57:24.629Z,18.97
2023-04-10T07:58:57.740Z,18.37
2023-04-10T08:00:30.981Z,19.27
2023-04-10T08:02:04.275Z,17.97
2023-04-10T08:03:40.568Z,18.57
2023-04-10T08:05:13.744Z,18.43
2023-04-10T08:06:47.244Z,17.30
2023-04-10T08:08:20.290Z,18.73
2023-04-10T08:09:54.767Z,17.90
2023-04-10T08:11:29.185Z,18.83
2023-04-10T08:13:02.337Z,19.07
2023-04-10T08:14:35.486Z,18.13
2023-04-10T08:16:09.484Z,17.20
2023-04-10T08:17:42.604Z,17.53
2023-04-10T08:19:15.679Z,17.60
2023-04-10T08:20:48.890Z,17.33
2023-04-10T08:22:21.968Z,17.53
2023-04-10T08:23:56.834Z,17.50
2023-04-10T08:25:31.504Z,17.70
2023-04-10T08:27:06.282Z,17.80
2023-04-10T08:28:39.355Z,17.13
2023-04-10T08:30:12.959Z,16.53
2023-04-10T08:31:46.002Z,17.17
2023-04-10T08:33:19.248Z,17.60
2023-04-10T08:34:52.293Z,18.83
2023-04-10T08:36:27.145Z,18.20
2023-04-10T08:38:12.714Z,17.93
2023-04-10T08:39:47.187Z,17.33
2023-04-10T08:41:21.830Z,17.57
2023-04-10T08:42:54.963Z,18.63
2023-04-10T08:44:28.025Z,18.23
2023-04-10T08:46:02.260Z,18.47
2023-04-10T08:47:38.552Z,18.03
2023-04-10T08:49:16.566Z,17.33
2023-04-10T08:50:51.342Z,17.53
2023-04-10T08:52:27.204Z,18.10
2023-04-10T08:54:06.972Z,17.53
2023-04-10T08:55:41.469Z,16.90
2023-04-10T08:57:20.592Z,17.27
2023-04-10T08:58:54.217Z,17.87
2023-04-10T09:00:28.021Z,17.30
2023-04-10T09:02:01.687Z,17.70
2023-04-10T09:03:35.417Z,16.57
2023-04-10T09:05:12.776Z,17.43
2023-04-10T09:06:45.942Z,17.30
2023-04-10T09:08:19.056Z,16.70
2023-04-10T09:09:52.079Z,17.30
2023-04-10T09:11:25.303Z,16.90
2023-04-10T09:12:59.724Z,17.03
2023-04-10T09:14:33.925Z,18.10
2023-04-10T09:16:08.298Z,18.13
2023-04-10T09:17:56.573Z,18.20
2023-04-10T09:19:33.495Z,16.97
2023-04-10T09:21:08.179Z,17.27
2023-04-10T09:22:41.267Z,17.73
2023-04-10T09:24:14.644Z,17.70
2023-04-10T09:25:49.824Z,16.80
2023-04-10T09:27:32.373Z,17.20
2023-04-10T09:29:08.190Z,17.03
2023-04-10T09:30:43.220Z,16.10
2023-04-10T09:32:37.600Z,16.43
2023-04-10T09:34:13.982Z,15.73
2023-04-10T09:35:47.190Z,15.70
2023-04-10T09:37:20.924Z,16.60
2023-04-10T09:38:55.961Z,14.97
2023-04-10T09:40:29.102Z,14.03
2023-04-10T09:42:02.446Z,14.03
2023-04-10T09:43:35.608Z,15.10
2023-04-10T09:45:10.338Z,14.90
2023-04-10T09:46:43.528Z,14.60
2023-04-10T09:48:16.762Z,13.93
2023-04-10T09:49:52.503Z,14.70
2023-04-10T09:51:30.719Z,14.67
2023-04-10T09:53:03.986Z,14.93
2023-04-10T09:54:38.563Z,15.13
2023-04-10T09:56:13.050Z,13.80
2023-04-10T09:57:46.565Z,13.80
2023-04-10T09:59:20.310Z,13.10
2023-04-10T10:00:55.037Z,12.07
2023-04-10T10:02:31.237Z,12.43
2023-04-10T10:04:05.933Z,12.67
2023-04-10T10:05:42.057Z,12.57
2023-04-10T10:07:16.654Z,11.70
2023-04-10T10:08:50.117Z,10.57
2023-04-10T10:10:23.436Z,10.33
2023-04-10T10:11:56.906Z,9.97
2023-04-10T10:13:35.885Z,9.87
2023-04-10T10:15:14.077Z,10.67
2023-04-10T10:16:51.659Z,10.20
2023-04-10T10:18:33.986Z,10.20
2023-04-10T10:20:10.698Z,9.97
2023-04-10T10:21:46.107Z,9.77
2023-04-10T10:23:20.460Z,10.07
2023-04-10T10:24:56.746Z,9.30
2023-04-10T10:26:31.820Z,9.00
2023-04-10T10:28:06.306Z,10.40
2023-04-10T10:29:41.101Z,9.83
2023-04-10T10:31:14.983Z,9.90
2023-04-10T10:32:51.503Z,10.00
2023-04-10T10:34:24.723Z,9.90
2023-04-10T10:36:00.628Z,9.80
2023-04-10T10:37:34.035Z,10.00
2023-04-10T10:39:23.990Z,10.17
2023-04-10T10:41:03.581Z,9.80
2023-04-10T10:42:46.573Z,10.20
2023-04-10T10:44:35.493Z,9.53
2023-04-10T10:46:12.395Z,9.57
2023-04-10T10:47:49.597Z,9.93
2023-04-10T10:49:24.080Z,10.13
2023-04-10T10:50:59.077Z,10.23
2023-04-10T10:52:43.070Z,10.53
2023-04-10T10:54:32.672Z,11.00
2023-04-10T10:56:38.782Z,10.33
2023-04-10T10:58:13.262Z,11.07
2023-04-10T10:59:56.736Z,10.03
2023-04-10T11:01:29.951Z,11.40
2023-04-10T11:03:28.451Z,11.90
2023-04-10T11:05:03.770Z,12.13
2023-04-10T11:06:53.177Z,12.47
2023-04-10T11:08:44.552Z,11.70
2023-04-10T11:10:17.889Z,12.37
2023-04-10T11:12:00.146Z,13.43
2023-04-10T11:13:33.824Z,14.67
2023-04-10T11:15:08.066Z,13.33
2023-04-10T11:16:44.638Z,13.77
2023-04-10T11:18:17.934Z,13.33
2023-04-10T11:20:03.491Z,12.63
2023-04-10T11:21:37.349Z,10.97
2023-04-10T11:23:12.491Z,12.43
2023-04-10T11:24:57.811Z,12.67
2023-04-10T11:26:41.513Z,12.20
2023-04-10T11:28:35.685Z,13.07
2023-04-10T11:30:27.716Z,13.00
2023-04-10T11:32:02.733Z,12.13
2023-04-10T11:33:37.182Z,12.23
2023-04-10T11:35:12.423Z,12.60
2023-04-10T11:36:46.138Z,11.67
2023-04-10T11:38:19.456Z,10.90
2023-04-10T11:40:05.370Z,11.40
2023-04-10T11:41:41.758Z,10.20
2023-04-10T11:43:15.374Z,11.13
2023-04-10T11:44:48.943Z,11.63
2023-04-10T11:46:22.577Z,11.57
2023-04-10T11:47:56.217Z,11.87
2023-04-10T11:49:31.836Z,11.23
2023-04-10T11:51:15.623Z,11.03
2023-04-10T11:52:49.989Z,11.00
2023-04-10T11:54:24.599Z,12.00
2023-04-10T11:55:58.524Z,11.60
2023-04-10T11:57:36.191Z,11.70
2023-04-10T11:59:11.217Z,11.33
2023-04-10T12:00:44.571Z,12.07
2023-04-10T12:02:17.754Z,12.20
2023-04-10T12:03:51.577Z,11.50
2023-04-10T12:05:24.867Z,11.53
2023-04-10T12:06:59.409Z,11.10
2023-04-10T12:08:33.547Z,11.20
2023-04-10T12:10:08.029Z,9.60
2023-04-10T12:11:49.289Z,11.40
2023-04-10T12:13:28.668Z,10.60
2023-04-10T12:15:02.382Z,10.97
2023-04-10T12:16:36.123Z,10.40
2023-04-10T12:18:09.720Z,9.93
2023-04-10T12:19:42.980Z,9.93
2023-04-10T12:21:16.270Z,10.10
2023-04-10T12:22:50.778Z,10.30
2023-04-10T12:24:43.435Z,10.30
2023-04-10T12:26:17.688Z,10.03
2023-04-10T12:27:52.015Z,9.63
2023-04-10T12:29:28.452Z,8.83
2023-04-10T12:31:01.746Z,9.03
2023-04-10T12:32:34.865Z,8.80
2023-04-10T12:34:11.305Z,10.50
2023-04-10T12:35:44.663Z,8.57
2023-04-10T12:37:17.917Z,9.13
2023-04-10T12:38:52.786Z,9.33
2023-04-10T12:40:26.079Z,9.30
2023-04-10T12:42:13.303Z,9.73
2023-04-10T12:43:46.597Z,10.93
2023-04-10T12:45:19.699Z,10.07
2023-04-10T12:47:01.458Z,9.97
2023-04-10T12:48:35.088Z,10.27
2023-04-10T12:50:10.562Z,10.00
2023-04-10T12:51:44.987Z,9.47
2023-04-10T12:53:18.054Z,8.63
2023-04-10T12:54:52.714Z,8.80
2023-04-10T12:56:25.836Z,7.67
2023-04-10T12:57:59.195Z,7.80
2023-04-10T12:59:32.681Z,7.90
2023-04-10T13:01:07.833Z,8.57
2023-04-10T13:02:41.966Z,8.20
2023-04-10T13:04:15.406Z,8.13
2023-04-10T13:05:48.737Z,8.50
2023-04-10T13:07:21.806Z,8.03
2023-04-10T13:08:56.119Z,8.10
2023-04-10T13:10:30.951Z,7.80
2023-04-10T13:12:04.697Z,7.77
2023-04-10T13:13:39.022Z,7.77
2023-04-10T13:15:12.064Z,7.60
2023-04-10T13:16:45.798Z,6.83
2023-04-10T13:18:19.179Z,8.47
2023-04-10T13:19:52.242Z,8.40
2023-04-10T13:21:26.832Z,8.07
2023-04-10T13:22:59.891Z,8.27
2023-04-10T13:24:33.113Z,8.10
2023-04-10T13:26:07.985Z,7.63
2023-04-10T13:27:41.140Z,7.27
2023-04-10T13:29:14.187Z,7.50
2023-04-10T13:30:47.446Z,7.20
2023-04-10T13:32:21.386Z,7.30
2023-04-10T13:33:54.524Z,6.90
2023-04-10T13:35:27.608Z,6.50
2023-04-10T13:37:00.943Z,7.63
2023-04-10T13:38:34.049Z,7.20
2023-04-10T13:40:08.473Z,7.80
2023-04-10T13:41:42.855Z,6.93
2023-04-10T13:43:16.063Z,6.60
2023-04-10T13:44:49.111Z,7.03
2023-04-10T13:46:22.384Z,6.97
2023-04-10T13:47:55.478Z,6.33
2023-04-10T13:49:30.335Z,6.80
2023-04-10T13:51:03.636Z,6.80
2023-04-10T13:52:36.796Z,6.60
2023-04-10T13:54:10.725Z,5.83
2023-04-10T13:55:47.614Z,6.00
2023-04-10T13:57:22.303Z,5.97
2023-04-10T13:58:55.752Z,6.00
2023-04-10T14:00:29.139Z,6.10
2023-04-10T14:02:02.346Z,5.77
2023-04-10T14:03:35.565Z,5.17
2023-04-10T14:05:09.986Z,5.33
2023-04-10T14:06:43.025Z,5.17
2023-04-10T14:08:16.159Z,5.37
2023-04-10T14:09:49.644Z,5.10
2023-04-10T14:11:23.484Z,5.37
2023-04-10T14:12:58.122Z,5.80
2023-04-10T14:14:31.345Z,5.07
2023-04-10T14:16:05.118Z,5.27
2023-04-10T14:17:38.650Z,5.10
2023-04-10T14:19:12.147Z,5.43
2023-04-10T14:20:45.573Z,5.50
2023-04-10T14:22:18.735Z,5.77
2023-04-10T14:23:51.976Z,5.73
2023-04-10T14:25:25.062Z,4.87
2023-04-10T14:27:00.830Z,4.70
2023-04-10T14:28:35.287Z,5.23
2023-04-10T14:30:09.954Z,5.33
2023-04-10T14:31:56.711Z,5.10
2023-04-10T14:33:30.678Z,5.37
2023-04-10T14:35:03.749Z,5.57
2023-04-10T14:36:37.358Z,5.50
2023-04-10T14:38:10.469Z,5.43
2023-04-10T14:39:43.741Z,4.80
2023-04-10T14:41:16.785Z,4.97
2023-04-10T14:42:49.822Z,5.30
2023-04-10T14:44:24.222Z,5.50
2023-04-10T14:45:57.917Z,6.33
2023-04-10T14:47:31.044Z,6.13
2023-04-10T14:49:04.333Z,6.10
2023-04-10T14:50:37.579Z,6.57
2023-04-10T14:52:11.506Z,6.53
2023-04-10T14:53:45.696Z,6.47
2023-04-10T14:55:18.818Z,7.03
2023-04-10T14:56:52.113Z,7.33
2023-04-10T14:58:25.411Z,6.60
2023-04-10T15:00:01.396Z,6.50
2023-04-10T15:01:36.472Z,6.50
2023-04-10T15:03:09.692Z,5.80
2023-04-10T15:04:43.575Z,6.10
2023-04-10T15:06:16.654Z,6.50
2023-04-10T15:07:49.861Z,6.87
2023-04-10T15:09:22.897Z,6.43
2023-04-10T15:10:56.025Z,6.00
2023-04-10T15:12:29.054Z,6.50
2023-04-10T15:14:02.395Z,6.60
2023-04-10T15:15:36.814Z,6.50
2023-04-10T15:17:10.209Z,6.47
2023-04-10T15:18:43.306Z,7.00
2023-04-10T15:20:16.409Z,6.97
2023-04-10T15:21:49.470Z,6.77
2023-04-10T15:23:22.720Z,6.33
2023-04-10T15:24:55.783Z,6.77
2023-04-10T15:26:28.883Z,6.80
2023-04-10T15:28:02.390Z,6.70
2023-04-10T15:29:39.652Z,6.33
2023-04-10T15:31:14.153Z,6.53
2023-04-10T15:32:47.294Z,6.93
2023-04-10T15:34:20.425Z,6.20
2023-04-10T15:35:54.206Z,6.30
2023-04-10T15:37:27.284Z,6.30
2023-04-10T15:39:02.763Z,6.50
2023-04-10T15:40:35.824Z,6.70
2023-04-10T15:42:09.925Z,6.53
2023-04-10T15:43:43.343Z,6.30
2023-04-10T15:45:16.498Z,7.27
2023-04-10T15:46:51.168Z,6.43
2023-04-10T15:48:25.476Z,6.37
2023-04-10T15:49:58.639Z,6.30
2023-04-10T15:51:32.157Z,6.60
2023-04-10T15:53:05.202Z,6.90
2023-04-10T15:54:40.256Z,6.20
2023-04-10T15:56:15.932Z,6.73
2023-04-10T15:57:48.997Z,6.83
2023-04-10T15:59:22.095Z,6.80
2023-04-10T16:00:55.268Z,6.50
2023-04-10T16:02:29.951Z,6.63
2023-04-10T16:04:03.251Z,6.17
2023-04-10T16:05:36.375Z,6.60
2023-04-10T16:07:09.489Z,7.17
2023-04-10T16:08:42.582Z,6.20
2023-04-10T16:10:15.679Z,6.77
2023-04-10T16:11:48.807Z,6.27
2023-04-10T16:13:21.887Z,6.77
2023-04-10T16:14:54.975Z,6.73
2023-04-10T16:16:29.050Z,6.60
2023-04-10T16:18:04.378Z,6.57
2023-04-10T16:19:37.488Z,6.43
2023-04-10T16:21:10.654Z,6.33
2023-04-10T16:22:43.675Z,6.17
2023-04-10T16:24:16.838Z,6.43
2023-04-10T16:25:49.906Z,6.47
2023-04-10T16:27:22.973Z,6.53
2023-04-10T16:28:56.473Z,6.10
2023-04-10T16:30:29.846Z,6.33
2023-04-10T16:32:02.979Z,6.43
2023-04-10T16:33:37.854Z,6.67
2023-04-10T16:35:11.226Z,6.17
2023-04-10T16:36:44.386Z,6.83
2023-04-10T16:38:17.486Z,6.40
2023-04-10T16:39:51.188Z,6.50
2023-04-10T16:41:24.274Z,6.40
2023-04-10T16:42:57.520Z,6.20
2023-04-10T16:44:30.818Z,6.00
2023-04-10T16:46:03.919Z,6.63
2023-04-10T16:47:37.089Z,6.20
2023-04-10T16:49:11.558Z,6.07
2023-04-10T16:50:44.597Z,6.03
2023-04-10T16:52:17.768Z,6.97
2023-04-10T16:53:51.643Z,6.63
2023-04-10T16:55:25.542Z,5.80
2023-04-10T16:56:59.277Z,5.90
2023-04-10T16:58:33.530Z,6.40
2023-04-10T17:00:08.353Z,6.07
2023-04-10T17:01:41.483Z,6.20
2023-04-10T17:03:14.742Z,6.30
2023-04-10T17:04:49.259Z,6.20
2023-04-10T17:06:22.502Z,6.30
2023-04-10T17:07:55.607Z,6.27
2023-04-10T17:09:28.688Z,6.53
2023-04-10T17:11:01.761Z,5.83
2023-04-10T17:12:35.000Z,5.67
2023-04-10T17:14:09.059Z,6.50
2023-04-10T17:15:42.188Z,6.30
2023-04-10T17:17:15.433Z,6.50
2023-04-10T17:18:48.686Z,6.00
2023-04-10T17:20:23.206Z,6.50
2023-04-10T17:21:56.370Z,6.30
2023-04-10T17:23:29.895Z,5.97
2023-04-10T17:25:03.071Z,6.60
2023-04-10T17:26:36.354Z,6.37
2023-04-10T17:28:09.614Z,6.27
2023-04-10T17:29:42.800Z,6.70
2023-04-10T17:31:16.353Z,6.17
2023-04-10T17:32:49.650Z,6.07
2023-04-10T17:34:22.752Z,6.13
2023-04-10T17:35:57.290Z,6.20
2023-04-10T17:37:30.472Z,6.20
2023-04-10T17:39:03.663Z,6.60
2023-04-10T17:40:38.323Z,5.90
2023-04-10T17:42:11.410Z,5.90
2023-04-10T17:43:44.561Z,6.30
2023-04-10T17:45:17.894Z,6.17
2023-04-10T17:46:51.065Z,5.67
2023-04-10T17:48:24.267Z,6.30
2023-04-10T17:49:57.487Z,6.70
2023-04-10T17:51:32.627Z,6.20
2023-04-10T17:53:05.746Z,5.93
2023-04-10T17:54:38.821Z,6.60
2023-04-10T17:56:19.180Z,6.67
2023-04-10T17:57:52.720Z,5.90
2023-04-10T17:59:25.828Z,6.80
2023-04-10T18:00:58.922Z,6.60
2023-04-10T18:02:32.203Z,6.23
2023-04-10T18:04:05.733Z,6.60
2023-04-10T18:05:39.762Z,6.83
2023-04-10T18:07:14.166Z,6.70
2023-04-10T18:08:47.284Z,7.07
2023-04-10T18:10:20.643Z,7.33
2023-04-10T18:11:53.694Z,7.23
2023-04-10T18:13:26.805Z,7.53
2023-04-10T18:15:00.354Z,7.30
2023-04-10T18:16:33.471Z,8.07
2023-04-10T18:18:06.650Z,7.67
2023-04-10T18:19:39.755Z,7.93
2023-04-10T18:21:13.532Z,7.63
2023-04-10T18:22:48.772Z,7.47
2023-04-10T18:24:21.853Z,8.37
2023-04-10T18:25:55.560Z,8.23
2023-04-10T18:27:30.488Z,8.60
2023-04-10T18:29:03.720Z,8.57
2023-04-10T18:30:39.049Z,8.90
2023-04-10T18:32:12.315Z,10.07
2023-04-10T18:33:45.670Z,9.13
2023-04-10T18:35:19.113Z,10.50
2023-04-10T18:36:52.187Z,10.23
2023-04-10T18:38:26.984Z,11.10
2023-04-10T18:40:06.347Z,11.63
2023-04-10T18:41:46.825Z,11.80
2023-04-10T18:43:19.886Z,10.77
2023-04-10T18:44:53.066Z,11.10
2023-04-10T18:46:28.109Z,12.33
2023-04-10T18:48:01.611Z,12.70
2023-04-10T18:49:34.935Z,12.57
2023-04-10T18:51:08.038Z,12.13
2023-04-10T18:52:41.109Z,11.77
2023-04-10T18:54:15.587Z,11.27
2023-04-10T18:55:52.493Z,11.60
2023-04-10T18:57:25.688Z,10.83
2023-04-10T18:58:59.493Z,10.27
2023-04-10T19:00:34.172Z,10.47
2023-04-10T19:02:08.886Z,9.93
2023-04-10T19:03:42.187Z,10.00
2023-04-10T19:05:16.668Z,10.37
2023-04-10T19:06:49.748Z,10.53
2023-04-10T19:08:22.869Z,10.37
2023-04-10T19:09:57.300Z,10.40
2023-04-10T19:11:30.331Z,10.50
2023-04-10T19:13:03.804Z,9.90
2023-04-10T19:14:37.509Z,10.40
2023-04-10T19:16:14.465Z,10.40
2023-04-10T19:17:47.726Z,10.53
2023-04-10T19:19:20.822Z,10.70
2023-04-10T19:20:53.870Z,11.10
2023-04-10T19:22:27.009Z,10.00
2023-04-10T19:24:00.101Z,10.40
2023-04-10T19:25:34.632Z,10.30
2023-04-10T19:27:07.728Z,10.60
2023-04-10T19:28:40.758Z,10.90
2023-04-10T19:30:15.082Z,10.77
2023-04-10T19:31:48.184Z,11.20
2023-04-10T19:33:21.359Z,10.80
2023-04-10T19:34:54.455Z,10.97
2023-04-10T19:36:27.834Z,10.20
2023-04-10T19:38:00.925Z,10.47
2023-04-10T19:39:34.031Z,11.50
2023-04-10T19:41:15.861Z,11.03
2023-04-10T19:42:48.956Z,11.53
2023-04-10T19:44:22.000Z,10.43
2023-04-10T19:45:56.202Z,10.97
2023-04-10T19:47:29.297Z,10.53
2023-04-10T19:49:02.409Z,10.43
2023-04-10T19:50:35.656Z,11.07
2023-04-10T19:52:09.383Z,11.33
2023-04-10T19:53:43.240Z,11.20
2023-04-10T19:55:18.689Z,10.87
2023-04-10T19:56:53.485Z,10.67
2023-04-10T20:00:03.541Z,11.03
2023-04-10T20:01:45.255Z,11.20
2023-04-10T20:03:25.868Z,10.67
2023-04-10T20:04:59.228Z,11.27
2023-04-10T20:06:32.828Z,11.77
2023-04-10T20:08:06.047Z,10.97
2023-04-10T20:09:39.343Z,11.47
2023-04-10T20:11:12.451Z,11.30
2023-04-10T20:12:46.932Z,11.63
2023-04-10T20:14:20.241Z,12.17
2023-04-10T20:15:53.474Z,11.37
2023-04-10T20:17:26.713Z,11.87
2023-04-10T20:18:59.793Z,12.10
2023-04-10T20:20:32.925Z,11.43
2023-04-10T20:22:06.036Z,11.40
2023-04-10T20:23:39.147Z,11.57
2023-04-10T20:25:12.211Z,11.67
2023-04-10T20:26:46.281Z,11.17
2023-04-10T20:28:20.800Z,12.03
2023-04-10T20:29:53.887Z,13.10
2023-04-10T20:31:27.046Z,11.73
2023-04-10T20:33:00.274Z,11.87
2023-04-10T20:34:33.420Z,11.63
2023-04-10T20:36:06.834Z,10.93
2023-04-10T20:37:39.992Z,11.60
2023-04-10T20:39:13.044Z,11.07
2023-04-10T20:40:46.233Z,11.33
2023-04-10T20:42:19.340Z,11.13
2023-04-10T20:43:55.656Z,11.50
2023-04-10T20:45:28.900Z,11.10
2023-04-10T20:47:02.026Z,11.63
2023-04-10T20:48:35.714Z,11.83
2023-04-10T20:50:11.508Z,11.50
2023-04-10T20:51:45.893Z,12.80
2023-04-10T20:53:19.004Z,11.67
2023-04-10T20:54:52.022Z,12.23